Time;durP1;ratioP1;P1;durP2;ratioP2;P2;SDS_P1;SDS_P2;PMS_P1;PMS_P2;Temp;Humidity;BMP_temperature;BMP_pressure;BME280_temperature;BME280_humidity;BME280_pressure;Samples;Min_cycle;Max_cycle;Signal;HPM_P1;HPM_P2
2023/06/23 00:00:15;;;;;;;15.27;11.48;;;;;;;21.72;64.17;94972.75;4210823;28;20579;-58
2023/06/23 00:02:17;;;;;;;15.13;10.65;;;;;;;21.73;64.37;94977.06;4211160;28;20128;-57
2023/06/23 00:04:19;;;;;;;18.08;10.57;;;;;;;21.72;64.99;94975.41;4210435;28;20470;-57
2023/06/23 00:06:21;;;;;;;13.50;9.93;;;;;;;21.67;64.64;94972.63;4196938;28;20521;-57
2023/06/23 00:08:23;;;;;;;12.93;9.75;;;;;;;21.60;64.97;94966.53;4209766;28;20051;-58
2023/06/23 00:10:24;;;;;;;12.00;10.18;;;;;;;21.53;64.90;94976.44;4211541;28;20127;-57
2023/06/23 00:12:26;;;;;;;12.50;9.85;;;;;;;21.50;65.32;94974.22;4209971;28;20083;-54
2023/06/23 00:14:28;;;;;;;14.48;9.57;;;;;;;21.47;65.30;94968.31;4209448;28;20052;-56
2023/06/23 00:16:30;;;;;;;11.90;10.07;;;;;;;21.46;65.50;94973.84;4200811;28;20144;-54
2023/06/23 00:18:39;;;;;;;14.90;10.73;;;;;;;21.46;65.27;94966.66;4210748;28;20093;-55
2023/06/23 00:20:41;;;;;;;12.90;10.65;;;;;;;21.47;65.27;94970.97;4209720;28;20048;-57
2023/06/23 00:22:44;;;;;;;15.20;10.23;;;;;;;21.48;65.43;94969.09;4206130;28;20719;-58
2023/06/23 00:24:45;;;;;;;17.25;10.65;;;;;;;21.50;65.38;94972.38;4199836;28;20480;-54
2023/06/23 00:26:47;;;;;;;13.98;10.93;;;;;;;21.47;64.90;94986.16;4207720;28;20154;-59
2023/06/23 00:28:49;;;;;;;14.30;11.82;;;;;;;21.43;64.93;94976.97;4209854;28;20048;-57
2023/06/23 00:30:54;;;;;;;13.27;10.57;;;;;;;21.40;65.56;94967.53;4211071;28;20106;-54
2023/06/23 00:32:56;;;;;;;14.40;11.05;;;;;;;21.39;65.83;94973.06;4211024;28;20055;-57
2023/06/23 00:34:58;;;;;;;12.18;10.18;;;;;;;21.33;65.64;94968.63;4210288;28;20153;-54
2023/06/23 00:36:59;;;;;;;16.23;10.98;;;;;;;21.33;65.66;94965.94;4194388;28;20418;-56
2023/06/23 00:39:02;;;;;;;14.90;10.43;;;;;;;21.33;65.99;94965.94;4194728;28;20624;-57
2023/06/23 00:41:04;;;;;;;14.03;10.93;;;;;;;21.36;65.95;94966.34;4197434;28;20060;-58
2023/06/23 00:43:06;;;;;;;12.88;10.95;;;;;;;21.34;65.78;94968.41;4209504;28;20070;-58
2023/06/23 00:45:09;;;;;;;12.63;10.27;;;;;;;21.35;65.86;94961.22;4210067;28;20056;-55
2023/06/23 00:47:11;;;;;;;13.68;10.35;;;;;;;21.33;66.16;94966.75;4198035;28;20478;-57
2023/06/23 00:49:14;;;;;;;16.70;12.02;;;;;;;21.34;66.35;94967.56;4208867;28;20060;-54
2023/06/23 00:51:16;;;;;;;12.15;10.95;;;;;;;21.34;66.40;94968.41;4204297;28;20097;-56
2023/06/23 00:53:18;;;;;;;14.55;10.02;;;;;;;21.31;66.35;94960.81;4199101;28;20044;-56
2023/06/23 00:55:22;;;;;;;12.15;10.82;;;;;;;21.31;66.36;94962.69;4205106;28;20566;-57
2023/06/23 00:57:23;;;;;;;12.57;11.05;;;;;;;21.27;66.72;94965.81;4208112;28;20101;-57
2023/06/23 00:59:28;;;;;;;12.48;11.00;;;;;;;21.25;66.73;94964.38;4210485;28;20040;-57
2023/06/23 01:01:31;;;;;;;13.82;10.73;;;;;;;21.24;66.62;94963.56;4209219;28;20076;-58
2023/06/23 01:03:35;;;;;;;13.85;10.73;;;;;;;21.24;66.44;94965.41;4209545;28;20109;-57
2023/06/23 01:05:39;;;;;;;13.18;11.00;;;;;;;21.25;66.78;94961.69;4205273;28;20609;-55
2023/06/23 01:07:49;;;;;;;17.08;10.50;;;;;;;21.25;66.61;94961.69;4199178;28;20060;-56
2023/06/23 01:10:11;;;;;;;18.65;11.43;;;;;;;21.20;66.78;94965.03;4204153;28;20044;-55
2023/06/23 01:12:22;;;;;;;14.57;11.55;;;;;;;21.13;67.21;94966.13;4199282;28;20469;-55
2023/06/23 01:14:29;;;;;;;18.70;11.85;;;;;;;21.03;67.44;94967.41;4207610;28;20048;-56
2023/06/23 01:16:33;;;;;;;12.55;10.45;;;;;;;20.98;67.75;94966.47;4204519;28;20079;-58
2023/06/23 01:18:55;;;;;;;13.68;11.43;;;;;;;20.98;67.81;94966.47;4206163;28;20048;-56
2023/06/23 01:21:01;;;;;;;17.20;12.27;;;;;;;20.61;68.64;94972.44;4206406;28;20121;-57
2023/06/23 01:23:21;;;;;;;18.63;11.68;;;;;;;20.32;69.60;94968.47;4208500;28;20448;-56
2023/06/23 01:25:48;;;;;;;14.13;11.52;;;;;;;20.02;70.51;94963.72;4209972;28;20481;-56
2023/06/23 01:27:52;;;;;;;14.35;11.52;;;;;;;20.05;71.00;94957.19;4210026;28;20044;-55
2023/06/23 01:29:56;;;;;;;16.33;11.40;;;;;;;20.16;70.91;94958.34;4208619;28;20107;-54
2023/06/23 01:32:11;;;;;;;12.68;11.38;;;;;;;20.28;70.54;94958.47;4209273;28;20594;-58
2023/06/23 01:34:20;;;;;;;18.52;12.10;;;;;;;20.40;70.14;94954.94;4207840;28;20423;-55
2023/06/23 01:36:30;;;;;;;13.20;11.40;;;;;;;20.47;69.77;94949.56;4209432;28;20466;-55
2023/06/23 01:38:38;;;;;;;15.40;11.63;;;;;;;20.52;69.30;94959.56;4206676;28;20067;-57
2023/06/23 01:40:41;;;;;;;14.88;11.05;;;;;;;20.54;69.60;94961.00;4209178;28;20142;-56
2023/06/23 01:42:56;;;;;;;13.70;11.32;;;;;;;20.58;69.44;94959.56;4197443;28;20127;-57
2023/06/23 01:45:01;;;;;;;12.48;11.10;;;;;;;20.60;69.56;94956.69;4195008;28;20040;-56
2023/06/23 01:47:10;;;;;;;15.65;12.05;;;;;;;20.61;69.49;94955.66;4208614;28;20048;-55
2023/06/23 01:49:16;;;;;;;13.88;11.18;;;;;;;20.64;69.18;94955.22;4208383;28;20215;-54
2023/06/23 01:51:19;;;;;;;15.10;10.77;;;;;;;20.65;69.32;94964.84;4206885;28;20048;-57
2023/06/23 01:53:21;;;;;;;19.80;11.75;;;;;;;20.60;68.90;94957.50;4208030;28;20503;-56
2023/06/23 01:55:24;;;;;;;16.38;11.65;;;;;;;20.45;69.67;94954.28;4209637;28;20063;-57
2023/06/23 01:57:26;;;;;;;17.33;11.40;;;;;;;20.25;70.06;94954.41;4207045;28;20062;-55
2023/06/23 01:59:29;;;;;;;17.45;12.70;;;;;;;20.00;70.59;94956.97;4207708;28;20281;-57
2023/06/23 02:01:31;;;;;;;14.13;11.00;;;;;;;19.46;71.75;94958.94;4205749;28;20048;-57
2023/06/23 02:03:34;;;;;;;13.50;10.35;;;;;;;19.18;72.81;94970.63;4208223;28;20066;-59
2023/06/23 02:05:37;;;;;;;16.77;10.88;;;;;;;18.95;74.02;94967.59;4207995;28;20473;-56
2023/06/23 02:07:41;;;;;;;12.48;10.30;;;;;;;18.99;74.15;94968.81;4209463;28;20047;-55
2023/06/23 02:09:43;;;;;;;17.55;10.88;;;;;;;19.10;74.14;94970.03;4210266;28;20058;-58
2023/06/23 02:11:46;;;;;;;18.65;11.25;;;;;;;19.27;73.97;94965.94;4198016;28;20049;-55
2023/06/23 02:13:49;;;;;;;18.15;12.05;;;;;;;19.43;73.17;94965.50;4207770;28;20409;-56
2023/06/23 02:15:51;;;;;;;14.65;10.57;;;;;;;19.55;72.54;94957.72;4206358;28;20075;-55
2023/06/23 02:17:55;;;;;;;18.98;11.20;;;;;;;19.68;72.22;94961.34;4208368;28;20048;-57
2023/06/23 02:19:57;;;;;;;15.00;11.30;;;;;;;19.81;71.89;94964.84;4207100;28;20056;-56
2023/06/23 02:21:59;;;;;;;14.38;10.00;;;;;;;19.88;71.57;94962.16;4205304;28;20163;-57
2023/06/23 02:24:06;;;;;;;16.25;11.38;;;;;;;19.93;71.57;94958.84;4198238;28;20052;-56
2023/06/23 02:26:09;;;;;;;14.93;11.30;;;;;;;20.01;71.19;94953.31;4208869;28;20806;-56
2023/06/23 02:28:11;;;;;;;12.35;9.75;;;;;;;20.06;70.76;94961.44;4211533;28;20093;-57
2023/06/23 02:30:13;;;;;;;14.35;11.23;;;;;;;20.10;70.40;94960.00;4211768;28;20493;-57
2023/06/23 02:32:17;;;;;;;17.05;10.55;;;;;;;20.14;70.28;94958.56;4212659;28;20472;-55
2023/06/23 02:34:18;;;;;;;14.13;10.52;;;;;;;20.19;70.11;94953.41;4211471;28;20070;-56
2023/06/23 02:36:23;;;;;;;16.00;10.38;;;;;;;20.24;69.97;94956.25;4211732;28;20043;-57
2023/06/23 02:38:25;;;;;;;11.80;10.18;;;;;;;20.25;69.85;94962.38;4198708;28;20138;-55
2023/06/23 02:40:29;;;;;;;12.88;10.60;;;;;;;20.28;69.73;94963.81;4211499;28;20044;-58
2023/06/23 02:42:33;;;;;;;14.30;10.82;;;;;;;20.20;69.82;94968.34;4213042;28;20578;-56
2023/06/23 02:44:37;;;;;;;13.60;10.00;;;;;;;20.19;69.69;94963.22;4210848;28;20138;-57
2023/06/23 02:46:40;;;;;;;13.48;9.55;;;;;;;20.17;69.53;94965.28;4210419;28;20048;-56
2023/06/23 02:48:44;;;;;;;16.67;10.60;;;;;;;20.16;69.14;94967.13;4210664;28;20422;-55
2023/06/23 02:50:47;;;;;;;16.42;10.38;;;;;;;20.15;69.17;94962.03;4197177;28;20106;-56
2023/06/23 02:52:49;;;;;;;18.10;11.02;;;;;;;20.15;69.39;94962.03;4208196;28;20106;-53
2023/06/23 02:54:52;;;;;;;14.48;10.35;;;;;;;20.16;69.45;94961.81;4211277;28;20062;-57
2023/06/23 02:56:56;;;;;;;20.27;11.15;;;;;;;20.22;69.38;94960.16;4201345;28;20501;-57
2023/06/23 02:59:05;;;;;;;18.63;10.90;;;;;;;20.24;69.42;94958.91;4207680;28;20047;-57
2023/06/23 03:01:08;;;;;;;18.90;11.65;;;;;;;20.27;69.55;94956.88;4210920;28;20036;-58
2023/06/23 03:03:14;;;;;;;15.10;11.02;;;;;;;20.29;69.59;94962.78;4212404;28;20591;-58
2023/06/23 03:05:16;;;;;;;17.23;14.45;;;;;;;20.30;69.65;94949.25;4212055;28;20052;-55
2023/06/23 03:07:18;;;;;;;20.25;13.57;;;;;;;20.32;69.64;94947.19;4209091;28;20540;-56
2023/06/23 03:09:20;;;;;;;18.45;14.23;;;;;;;20.31;69.62;94942.13;4211524;28;20739;-56
2023/06/23 03:11:21;;;;;;;17.70;13.43;;;;;;;20.33;69.62;94943.53;4212250;28;20606;-56
2023/06/23 03:13:24;;;;;;;20.83;15.30;;;;;;;20.34;69.71;94944.34;4210948;28;20047;-57
2023/06/23 03:15:27;;;;;;;20.65;15.73;;;;;;;20.38;69.65;94948.19;4204607;28;20165;-56
2023/06/23 03:17:31;;;;;;;18.00;14.90;;;;;;;20.25;69.84;94951.75;4210944;28;20113;-57
2023/06/23 03:19:42;;;;;;;21.67;16.55;;;;;;;20.00;70.73;94952.50;4210728;28;20054;-56
2023/06/23 03:21:48;;;;;;;18.65;14.07;;;;;;;19.93;71.38;94953.53;4210544;28;20040;-58
2023/06/23 03:23:51;;;;;;;17.65;13.88;;;;;;;19.49;73.15;94949.75;4209298;28;20087;-57
2023/06/23 03:25:54;;;;;;;22.20;13.73;;;;;;;19.15;74.81;94952.47;4210651;28;20052;-59
2023/06/23 03:27:59;;;;;;;23.70;14.20;;;;;;;19.07;75.54;94955.34;4210755;28;20059;-57
2023/06/23 03:30:04;;;;;;;15.45;13.68;;;;;;;19.22;75.50;94950.63;4211021;28;20125;-58
2023/06/23 03:32:07;;;;;;;19.98;13.65;;;;;;;19.43;75.12;94954.06;4198464;28;20557;-54
2023/06/23 03:34:09;;;;;;;19.10;14.33;;;;;;;19.63;74.40;94968.09;4211815;28;20040;-57
2023/06/23 03:36:16;;;;;;;20.60;14.35;;;;;;;19.80;73.81;94962.38;4208166;28;20666;-57
2023/06/23 03:38:19;;;;;;;18.60;13.55;;;;;;;19.91;73.20;94956.41;4208646;28;20070;-56
2023/06/23 03:40:22;;;;;;;19.50;13.70;;;;;;;20.02;73.11;94958.38;4210847;28;20069;-56
2023/06/23 03:42:24;;;;;;;20.27;14.95;;;;;;;20.12;72.45;94954.47;4210840;28;20048;-58
2023/06/23 03:44:33;;;;;;;18.38;14.80;;;;;;;20.17;72.66;94958.13;4209429;28;20059;-56
2023/06/23 03:46:46;;;;;;;26.13;14.25;;;;;;;20.27;72.48;94956.88;4210584;28;20522;-55
2023/06/23 03:48:50;;;;;;;18.60;13.60;;;;;;;20.39;72.11;94963.13;4210159;28;20048;-56
2023/06/23 03:50:54;;;;;;;13.80;12.23;;;;;;;20.50;70.75;94958.97;4209181;28;20280;-58
2023/06/23 03:52:56;;;;;;;16.38;12.70;;;;;;;20.55;69.93;94962.63;4210789;28;20656;-57
2023/06/23 03:54:59;;;;;;;13.53;11.87;;;;;;;20.61;69.64;94968.97;4209901;28;20090;-57
2023/06/23 03:57:02;;;;;;;16.23;12.80;;;;;;;20.65;69.42;94959.53;4199759;28;20053;-57
2023/06/23 03:59:05;;;;;;;20.77;13.88;;;;;;;20.69;69.50;94963.38;4206901;28;20140;-60
2023/06/23 04:01:07;;;;;;;15.73;12.10;;;;;;;20.77;69.21;94960.44;4209202;28;20097;-60
2023/06/23 04:03:09;;;;;;;17.67;12.25;;;;;;;20.87;68.97;94965.31;4211798;28;20169;-59
2023/06/23 04:05:13;;;;;;;23.98;11.95;;;;;;;20.93;68.36;94974.25;4211699;28;20075;-58
2023/06/23 04:07:15;;;;;;;14.68;11.90;;;;;;;20.99;68.23;94968.06;4205889;28;20060;-57
2023/06/23 04:09:19;;;;;;;18.73;12.68;;;;;;;21.06;68.04;94971.53;4210127;28;20040;-58
2023/06/23 04:11:21;;;;;;;24.10;14.32;;;;;;;21.03;68.31;94978.06;4209670;28;20040;-55
2023/06/23 04:13:26;;;;;;;23.10;15.77;;;;;;;20.86;69.17;94976.97;4208284;28;20044;-58
2023/06/23 04:15:31;;;;;;;19.75;13.98;;;;;;;20.78;69.85;94978.06;4209293;28;20135;-59
2023/06/23 04:17:34;;;;;;;20.23;15.05;;;;;;;20.82;69.88;94978.44;4211620;28;20046;-59
2023/06/23 04:19:36;;;;;;;23.40;14.60;;;;;;;20.82;69.73;94979.28;4210486;28;20402;-59
2023/06/23 04:21:39;;;;;;;22.95;16.00;;;;;;;20.79;70.30;94977.03;4208903;28;20520;-58
2023/06/23 04:23:41;;;;;;;24.13;16.43;;;;;;;20.58;70.81;94977.38;4207096;28;20048;-59
2023/06/23 04:25:46;;;;;;;21.65;16.38;;;;;;;20.44;71.92;94976.63;4209909;28;20064;-59
2023/06/23 04:27:51;;;;;;;22.02;17.45;;;;;;;20.40;72.32;94986.06;4203927;28;20081;-59
2023/06/23 04:29:53;;;;;;;26.67;18.05;;;;;;;20.35;72.69;94981.38;4205847;28;20050;-60
2023/06/23 04:31:55;;;;;;;22.60;17.15;;;;;;;20.42;72.79;94982.16;4209497;28;20450;-55
2023/06/23 04:33:57;;;;;;;22.95;17.58;;;;;;;20.57;72.32;94981.88;4211209;28;20048;-60
2023/06/23 04:36:13;;;;;;;20.52;15.77;;;;;;;20.76;71.71;94979.31;4210086;28;20058;-59
2023/06/23 04:38:15;;;;;;;22.90;17.33;;;;;;;20.91;70.99;94987.81;4208537;28;20564;-58
2023/06/23 04:40:21;;;;;;;23.73;16.92;;;;;;;21.07;70.59;94986.44;4209807;28;20039;-58
2023/06/23 04:42:33;;;;;;;21.48;18.08;;;;;;;20.94;70.46;94981.25;4209907;28;20493;-57
2023/06/23 04:44:39;;;;;;;22.33;17.75;;;;;;;21.02;70.65;94988.97;4209309;28;20055;-56
2023/06/23 04:46:41;;;;;;;33.17;19.20;;;;;;;21.11;70.18;94979.66;4210987;28;20113;-56
2023/06/23 04:48:48;;;;;;;20.75;18.13;;;;;;;21.23;69.95;94977.94;4209517;28;20340;-56
2023/06/23 04:50:52;;;;;;;22.27;16.88;;;;;;;21.33;69.68;94968.63;4197386;28;20044;-58
2023/06/23 04:53:00;;;;;;;25.50;18.58;;;;;;;21.38;69.32;94982.09;4208618;28;20477;-56
2023/06/23 04:55:04;;;;;;;27.63;17.77;;;;;;;21.47;68.97;94976.28;4211263;28;20056;-60
2023/06/23 04:57:12;;;;;;;34.38;17.10;;;;;;;21.51;69.12;94986.50;4210149;28;20054;-57
2023/06/23 04:59:15;;;;;;;29.08;17.00;;;;;;;21.50;69.02;94980.38;4207320;28;20071;-60
2023/06/23 05:01:18;;;;;;;23.92;16.70;;;;;;;21.54;68.35;94984.22;4206526;28;20691;-59
2023/06/23 05:03:20;;;;;;;25.05;19.15;;;;;;;21.49;68.19;94981.41;4206733;28;20411;-59
2023/06/23 05:05:24;;;;;;;24.25;16.90;;;;;;;21.47;68.84;94980.81;4208068;28;20155;-58
2023/06/23 05:07:26;;;;;;;23.48;18.10;;;;;;;21.46;68.60;94982.66;4206798;28;20269;-57
2023/06/23 05:09:30;;;;;;;25.38;16.50;;;;;;;21.48;68.95;94987.75;4205250;28;20235;-57
2023/06/23 05:11:32;;;;;;;21.52;16.67;;;;;;;21.41;68.51;94987.81;4205769;28;20051;-57
2023/06/23 05:13:36;;;;;;;19.27;16.63;;;;;;;21.50;69.06;94985.69;4209323;28;20044;-59
2023/06/23 05:15:38;;;;;;;23.05;15.65;;;;;;;21.56;68.15;94984.81;4208652;28;20049;-60
2023/06/23 05:17:40;;;;;;;19.65;15.27;;;;;;;21.72;68.15;94988.75;4209556;28;20082;-58
2023/06/23 05:19:43;;;;;;;18.52;14.60;;;;;;;21.86;67.55;94994.78;4210622;28;20074;-59
2023/06/23 05:21:45;;;;;;;21.27;14.60;;;;;;;21.99;67.16;94994.63;4208215;28;20478;-60
2023/06/23 05:23:49;;;;;;;17.95;13.98;;;;;;;22.14;66.68;94993.44;4196470;28;20526;-59
2023/06/23 05:25:57;;;;;;;17.20;14.30;;;;;;;22.23;66.47;94989.44;4211436;28;20040;-59
2023/06/23 05:28:01;;;;;;;19.52;13.73;;;;;;;22.34;66.36;94994.00;4210855;28;20123;-59
2023/06/23 05:30:04;;;;;;;21.92;14.15;;;;;;;22.33;65.67;94995.06;4210087;28;20063;-59
2023/06/23 05:32:13;;;;;;;19.98;13.45;;;;;;;22.40;65.78;95006.47;4208737;28;20127;-60
2023/06/23 05:34:17;;;;;;;17.55;14.15;;;;;;;22.47;65.80;95004.50;4209535;28;20172;-58
2023/06/23 05:36:20;;;;;;;17.00;13.73;;;;;;;22.56;65.56;95012.22;4209453;28;20101;-59
2023/06/23 05:38:23;;;;;;;17.60;14.48;;;;;;;22.60;64.75;95002.72;4208301;28;20201;-58
2023/06/23 05:40:25;;;;;;;17.35;13.77;;;;;;;22.58;65.67;95007.47;4209842;28;20044;-59
2023/06/23 05:42:29;;;;;;;18.75;13.07;;;;;;;22.40;65.71;95006.47;4208935;28;20425;-60
2023/06/23 05:44:31;;;;;;;18.00;13.80;;;;;;;22.41;65.88;95008.09;4205944;28;20070;-61
2023/06/23 05:46:34;;;;;;;19.55;14.40;;;;;;;22.55;66.16;95005.25;4208877;28;20086;-59
2023/06/23 05:48:41;;;;;;;18.98;14.60;;;;;;;22.69;65.20;95007.53;4209384;28;20433;-60
2023/06/23 05:50:43;;;;;;;19.58;13.70;;;;;;;22.61;65.09;95002.50;4209893;28;20063;-60
2023/06/23 05:52:54;;;;;;;17.23;15.13;;;;;;;22.44;65.19;95010.31;4208375;28;20044;-60
2023/06/23 05:54:59;;;;;;;17.70;14.02;;;;;;;22.51;65.32;95012.09;4208772;28;20056;-58
2023/06/23 05:57:04;;;;;;;18.90;14.55;;;;;;;22.43;65.59;95016.69;4210354;28;20048;-57
2023/06/23 05:59:08;;;;;;;18.48;13.95;;;;;;;22.35;65.58;95009.00;4210291;28;20208;-58
2023/06/23 06:01:17;;;;;;;20.35;14.40;;;;;;;22.38;65.97;95013.06;4210476;28;20048;-60
2023/06/23 06:03:21;;;;;;;17.05;15.25;;;;;;;22.47;66.21;95023.19;4212883;28;20127;-62
2023/06/23 06:05:23;;;;;;;19.08;15.77;;;;;;;22.42;65.94;95012.41;4211333;28;20048;-60
2023/06/23 06:07:25;;;;;;;17.80;14.50;;;;;;;22.61;66.02;95017.72;4211871;28;20135;-56
2023/06/23 06:09:28;;;;;;;19.60;14.95;;;;;;;22.61;65.74;95012.38;4211736;28;20044;-60
2023/06/23 06:11:30;;;;;;;20.60;15.07;;;;;;;22.57;65.86;95012.00;4210991;28;20105;-56
2023/06/23 06:13:37;;;;;;;22.00;15.30;;;;;;;22.53;65.86;95004.66;4212755;28;20412;-60
2023/06/23 06:15:39;;;;;;;24.65;15.48;;;;;;;22.59;66.14;95007.25;4210531;28;20090;-57
2023/06/23 06:17:41;;;;;;;22.20;14.60;;;;;;;22.65;65.79;95009.00;4212220;28;20070;-59
2023/06/23 06:19:44;;;;;;;22.92;14.95;;;;;;;22.73;65.67;95015.06;4212411;28;20047;-60
2023/06/23 06:21:46;;;;;;;21.67;15.60;;;;;;;22.90;65.23;95005.38;4212743;28;20093;-60
2023/06/23 06:23:49;;;;;;;18.88;15.45;;;;;;;22.98;64.75;94999.69;4211593;28;20048;-58
2023/06/23 06:25:52;;;;;;;18.73;15.05;;;;;;;23.10;64.84;95000.56;4213415;28;20076;-59
2023/06/23 06:27:54;;;;;;;;;;;;;;;23.27;64.64;94998.03;4214243;28;20075;-59
2023/06/23 06:29:56;;;;;;;17.05;14.50;;;;;;;23.49;63.81;94994.81;4213479;28;19939;-60
2023/06/23 06:31:59;;;;;;;16.73;14.75;;;;;;;23.68;63.37;94990.97;4210975;28;20048;-60
2023/06/23 06:34:02;;;;;;;16.40;14.60;;;;;;;23.70;63.15;94994.22;4213573;28;20048;-59
2023/06/23 06:36:07;;;;;;;16.58;14.50;;;;;;;23.74;63.01;94994.53;4211439;28;20229;-58
2023/06/23 06:38:09;;;;;;;16.60;14.82;;;;;;;23.86;62.97;94990.03;4210873;28;20466;-59
2023/06/23 06:40:12;;;;;;;17.83;15.25;;;;;;;23.95;62.41;94990.47;4199472;28;20093;-59
2023/06/23 06:42:13;;;;;;;25.03;16.63;;;;;;;23.86;62.24;94989.22;4213584;28;20052;-60
2023/06/23 06:44:16;;;;;;;20.98;17.52;;;;;;;23.83;62.40;94985.16;4213770;28;20124;-57
2023/06/23 06:46:18;;;;;;;23.25;16.33;;;;;;;23.92;62.69;94977.59;4212063;28;20492;-58
2023/06/23 06:48:20;;;;;;;18.38;14.77;;;;;;;24.06;62.79;94980.81;4208888;28;20478;-59
2023/06/23 06:50:23;;;;;;;18.67;16.20;;;;;;;24.22;62.31;94974.72;4204460;28;20040;-57
2023/06/23 06:52:26;;;;;;;22.65;18.48;;;;;;;24.30;61.46;94966.28;4212566;28;20082;-58
2023/06/23 06:54:45;;;;;;;19.30;15.27;;;;;;;24.23;61.41;94970.97;4201488;28;20048;-58
2023/06/23 06:56:47;;;;;;;20.17;14.73;;;;;;;24.30;61.79;94968.16;4204998;28;20090;-59
2023/06/23 06:58:48;;;;;;;17.52;15.48;;;;;;;24.26;61.60;94954.47;4206684;28;20080;-60
2023/06/23 07:00:52;;;;;;;18.80;15.43;;;;;;;23.98;60.82;94960.56;4207791;28;20486;-60
2023/06/23 07:02:55;;;;;;;21.17;17.25;;;;;;;23.86;61.48;94946.41;4209910;28;20040;-59
2023/06/23 07:04:57;;;;;;;21.70;17.57;;;;;;;24.00;61.89;94945.09;4203790;28;20102;-60
2023/06/23 07:06:59;;;;;;;27.30;17.98;;;;;;;23.82;61.93;94945.25;4206730;28;20311;-56
2023/06/23 07:09:00;;;;;;;24.50;17.88;;;;;;;23.66;62.53;94957.44;4208743;28;20084;-59
2023/06/23 07:11:02;;;;;;;24.92;19.33;;;;;;;23.59;62.95;94949.56;4209840;28;20054;-60
2023/06/23 07:13:04;;;;;;;20.73;17.52;;;;;;;23.69;63.67;94938.28;4210912;28;20493;-58
2023/06/23 07:15:07;;;;;;;22.48;16.67;;;;;;;23.89;62.75;94938.72;4211687;28;20177;-59
2023/06/23 07:17:09;;;;;;;22.38;18.08;;;;;;;24.00;62.41;94944.28;4211277;28;20058;-59
2023/06/23 07:19:11;;;;;;;23.17;17.08;;;;;;;24.25;61.96;94938.63;4212048;28;20048;-59
2023/06/23 07:21:13;;;;;;;21.73;15.18;;;;;;;24.46;61.17;94943.31;4211291;28;20620;-61
2023/06/23 07:23:14;;;;;;;21.13;15.60;;;;;;;24.69;60.57;94942.41;4212143;28;20040;-60
2023/06/23 07:25:16;;;;;;;21.25;16.70;;;;;;;24.65;59.86;94946.63;4211571;28;20142;-61
2023/06/23 07:27:18;;;;;;;24.13;18.25;;;;;;;24.61;59.76;94937.44;4212663;28;20048;-60
2023/06/23 07:29:20;;;;;;;22.17;15.63;;;;;;;24.64;59.45;94939.63;4206903;28;20066;-57
2023/06/23 07:31:22;;;;;;;21.25;14.80;;;;;;;24.68;59.02;94942.66;4212764;28;20051;-61
2023/06/23 07:33:24;;;;;;;21.20;14.95;;;;;;;24.58;58.88;94937.91;4197800;28;20449;-59
2023/06/23 07:35:26;;;;;;;19.25;14.63;;;;;;;24.40;59.61;94940.78;4211261;28;20044;-59
2023/06/23 07:37:27;;;;;;;21.80;15.60;;;;;;;24.42;60.18;94939.47;4211831;28;20040;-60
2023/06/23 07:39:30;;;;;;;21.88;15.10;;;;;;;24.64;60.52;94942.31;4212111;28;20048;-59
2023/06/23 07:41:31;;;;;;;21.75;14.48;;;;;;;24.91;60.19;94939.03;4211334;28;20051;-62
2023/06/23 07:43:33;;;;;;;19.00;14.48;;;;;;;25.10;57.86;94942.25;4206658;28;20045;-58
2023/06/23 07:45:35;;;;;;;18.30;13.98;;;;;;;25.26;57.41;94938.81;4204984;28;20052;-61
2023/06/23 07:47:38;;;;;;;18.58;14.65;;;;;;;25.37;57.52;94933.59;4211590;28;20059;-61
2023/06/23 07:49:40;;;;;;;;;;;;;;;25.46;58.88;94943.66;4208680;28;20363;-57
2023/06/23 07:51:41;;;;;;;21.92;15.73;;;;;;;25.58;57.64;94938.19;4205029;28;19955;-60
2023/06/23 07:53:44;;;;;;;17.00;14.25;;;;;;;25.50;57.31;94934.06;4204230;28;20494;-59
2023/06/23 07:56:05;;;;;;;19.75;14.23;;;;;;;25.49;57.87;94934.28;4209209;28;20098;-58
2023/06/23 07:58:07;;;;;;;21.20;14.50;;;;;;;25.44;55.45;94939.59;4202877;28;20047;-59
2023/06/23 08:00:09;;;;;;;20.08;15.63;;;;;;;25.34;56.85;94930.34;4212361;28;20066;-60
2023/06/23 08:02:11;;;;;;;23.25;15.18;;;;;;;25.44;56.19;94928.88;4210909;28;20052;-61
2023/06/23 08:04:14;;;;;;;19.67;14.75;;;;;;;25.66;56.01;94929.72;4210911;28;20072;-60
2023/06/23 08:06:23;;;;;;;20.35;15.63;;;;;;;25.85;56.03;94929.41;4211113;28;20047;-59
2023/06/23 08:08:25;;;;;;;31.92;26.48;;;;;;;25.96;56.14;94923.13;4211371;28;20048;-60
2023/06/23 08:10:26;;;;;;;24.70;14.13;;;;;;;25.93;56.21;94929.81;4210967;28;20736;-57
2023/06/23 08:12:28;;;;;;;23.25;15.90;;;;;;;25.83;56.24;94929.66;4210775;28;20075;-61
2023/06/23 08:14:30;;;;;;;22.77;14.90;;;;;;;25.67;56.69;94931.34;4202855;28;20040;-61
2023/06/23 08:16:32;;;;;;;25.40;15.95;;;;;;;25.79;57.14;94935.78;4203949;28;20050;-62
2023/06/23 08:18:33;;;;;;;20.08;14.82;;;;;;;25.92;56.24;94936.25;4209607;28;20072;-59
2023/06/23 08:20:35;;;;;;;27.48;14.00;;;;;;;26.07;55.38;94924.91;4210676;28;20459;-62
2023/06/23 08:22:40;;;;;;;16.20;13.93;;;;;;;26.30;55.31;94925.69;4208542;28;20062;-61
2023/06/23 08:24:41;;;;;;;27.70;19.25;;;;;;;26.32;54.94;94921.69;4210437;28;20441;-62
2023/06/23 08:26:46;;;;;;;22.85;16.23;;;;;;;26.29;54.33;94926.75;4209189;28;20105;-61
2023/06/23 08:28:48;;;;;;;94.35;60.05;;;;;;;26.46;53.92;94922.09;4211310;28;20486;-60
2023/06/23 08:30:49;;;;;;;19.58;14.27;;;;;;;26.49;54.22;94926.16;4211341;28;20048;-64
2023/06/23 08:32:51;;;;;;;19.00;13.73;;;;;;;26.58;53.97;94929.22;4209214;28;20397;-62
2023/06/23 08:34:53;;;;;;;16.40;12.50;;;;;;;26.68;54.05;94926.66;4197623;28;20044;-60
2023/06/23 08:36:55;;;;;;;18.73;12.05;;;;;;;26.76;53.87;94921.63;4210454;28;20143;-60
2023/06/23 08:38:57;;;;;;;16.83;12.05;;;;;;;26.90;52.90;94919.31;4207704;28;20063;-62
2023/06/23 08:40:59;;;;;;;17.90;12.30;;;;;;;26.99;52.24;94924.22;4210396;28;20063;-61
2023/06/23 08:43:01;;;;;;;21.02;13.75;;;;;;;26.96;51.60;94920.97;4208657;28;20040;-60
2023/06/23 08:45:04;;;;;;;13.87;12.13;;;;;;;26.97;50.88;94916.41;4209516;28;20159;-60
2023/06/23 08:47:06;;;;;;;12.95;11.40;;;;;;;27.05;51.00;94920.50;4211524;28;20294;-61
2023/06/23 08:49:14;;;;;;;15.30;11.40;;;;;;;27.20;50.56;94909.06;4206113;28;20059;-62
2023/06/23 08:51:16;;;;;;;16.83;11.73;;;;;;;27.27;50.66;94910.47;4207461;28;20135;-60
2023/06/23 08:53:18;;;;;;;16.00;11.23;;;;;;;27.41;50.75;94907.34;4209427;28;20070;-62
2023/06/23 08:55:20;;;;;;;17.15;12.43;;;;;;;27.37;49.59;94907.06;4209573;28;20051;-61
2023/06/23 08:57:22;;;;;;;17.88;10.82;;;;;;;27.30;50.42;94909.16;4208828;28;20078;-58
2023/06/23 08:59:23;;;;;;;16.13;10.80;;;;;;;26.99;49.49;94898.13;4209730;28;20082;-63
2023/06/23 09:01:26;;;;;;;16.35;10.15;;;;;;;27.00;49.81;94899.78;4201593;28;20050;-60
2023/06/23 09:03:27;;;;;;;12.88;10.77;;;;;;;27.10;49.84;94904.41;4208527;28;20131;-62
2023/06/23 09:05:29;;;;;;;14.60;10.93;;;;;;;27.30;49.90;94898.41;4207720;28;20056;-62
2023/06/23 09:07:31;;;;;;;15.95;11.35;;;;;;;27.49;50.46;94898.78;4210257;28;20405;-60
2023/06/23 09:09:33;;;;;;;13.02;11.55;;;;;;;27.66;50.58;94899.44;4208739;28;20074;-61
2023/06/23 09:11:36;;;;;;;17.63;10.85;;;;;;;27.79;49.28;94898.13;4210800;28;20044;-61
2023/06/23 09:13:41;;;;;;;14.18;10.95;;;;;;;27.78;48.36;94891.94;4210280;28;20058;-63
2023/06/23 09:15:47;;;;;;;14.07;10.25;;;;;;;27.75;48.20;94888.97;4208663;28;20508;-61
2023/06/23 09:18:02;;;;;;;13.77;10.45;;;;;;;27.79;48.15;94892.72;4211385;28;20615;-62
2023/06/23 09:20:04;;;;;;;16.58;11.25;;;;;;;27.87;49.06;94891.47;4208832;28;20530;-58
2023/06/23 09:22:06;;;;;;;16.63;11.83;;;;;;;28.05;49.12;94890.19;4207150;28;20047;-61
2023/06/23 09:24:08;;;;;;;14.48;10.95;;;;;;;28.22;48.86;94884.56;4209811;28;20044;-62
2023/06/23 09:26:18;;;;;;;13.40;11.05;;;;;;;28.28;47.64;94886.22;4211382;28;20044;-63
2023/06/23 09:28:27;;;;;;;16.55;11.57;;;;;;;28.12;46.99;94883.47;4210362;28;20070;-61